Time;durP1;ratioP1;P1;durP2;ratioP2;P2;SDS_P1;SDS_P2;PMS_P1;PMS_P2;Temp;Humidity;BMP_temperature;BMP_pressure;BME280_temperature;BME280_humidity;BME280_pressure;Samples;Min_cycle;Max_cycle;Signal;HPM_P1;HPM_P2
2022/12/29 00:01:31;;;;;;;5.17;2.73;;;8.30;99.90;;;;;;5022972;28;20242;-49
2022/12/29 00:03:59;;;;;;;2.60;2.40;;;8.30;99.90;;;;;;5022610;28;20202;-49
2022/12/29 00:06:27;;;;;;;2.70;2.50;;;8.30;99.90;;;;;;5023858;28;20208;-48
2022/12/29 00:08:54;;;;;;;3.87;3.10;;;8.30;99.90;;;;;;5019135;28;20223;-49
2022/12/29 00:11:22;;;;;;;2.60;2.50;;;8.30;99.90;;;;;;5017411;28;20203;-52
2022/12/29 00:16:37;;;;;;;2.90;2.70;;;8.40;99.90;;;;;;5019953;28;20219;-52
2022/12/29 00:19:05;;;;;;;3.03;2.83;;;8.40;99.90;;;;;;5029277;28;20569;-47
2022/12/29 00:35:30;;;;;;;3.20;3.00;;;8.50;99.90;;;;;;5027676;28;20208;-50
2022/12/29 00:46:15;;;;;;;3.40;3.20;;;8.60;99.90;;;;;;5029003;28;20759;-46
2022/12/29 00:51:24;;;;;;;4.30;3.50;;;8.60;99.90;;;;;;5033342;28;20286;-50
2022/12/29 00:53:51;;;;;;;5.70;3.80;;;8.70;99.90;;;;;;5039488;28;20370;-45
2022/12/29 00:56:18;;;;;;;3.40;3.20;;;8.70;99.90;;;;;;5013579;28;20211;-46
2022/12/29 00:58:45;;;;;;;3.43;3.13;;;8.70;99.90;;;;;;5029865;28;20199;-49
2022/12/29 01:01:11;;;;;;;3.97;3.67;;;8.70;99.90;;;;;;5023987;28;20610;-52
2022/12/29 01:03:39;;;;;;;3.77;3.43;;;8.80;99.90;;;;;;5038728;28;20246;-47
2022/12/29 01:06:09;;;;;;;3.40;3.10;;;8.70;99.90;;;;;;5027768;28;20694;-49
2022/12/29 01:08:38;;;;;;;4.10;3.73;;;8.80;99.90;;;;;;5027977;28;20208;-52
2022/12/29 01:11:06;;;;;;;4.03;3.70;;;8.80;99.90;;;;;;5026980;28;20200;-50
2022/12/29 01:13:33;;;;;;;5.73;3.63;;;8.80;99.90;;;;;;5016727;28;20199;-50
2022/12/29 01:16:00;;;;;;;3.50;3.30;;;8.70;99.90;;;;;;5039469;28;20234;-51
2022/12/29 01:18:27;;;;;;;3.30;3.10;;;8.70;99.90;;;;;;5036465;28;20207;-53
2022/12/29 01:21:00;;;;;;;3.60;3.40;;;8.80;99.90;;;;;;5027446;28;20220;-51
2022/12/29 01:23:29;;;;;;;3.90;3.60;;;8.80;99.90;;;;;;5025555;28;20200;-48
2022/12/29 01:25:56;;;;;;;3.60;3.30;;;8.80;99.90;;;;;;5025374;28;20600;-46
2022/12/29 01:28:24;;;;;;;2.80;2.70;;;8.80;99.90;;;;;;5012845;28;20226;-50
2022/12/29 01:30:50;;;;;;;2.83;2.67;;;8.80;99.90;;;;;;5028084;28;20188;-50
2022/12/29 01:33:17;;;;;;;3.90;3.50;;;8.90;99.90;;;;;;5029903;28;20212;-48
2022/12/29 01:35:44;;;;;;;3.30;2.97;;;8.90;99.90;;;;;;5023806;28;20219;-45
2022/12/29 01:38:11;;;;;;;3.30;3.10;;;9.00;99.90;;;;;;5025561;28;20216;-45
2022/12/29 01:40:45;;;;;;;4.13;3.73;;;9.00;99.90;;;;;;5018397;28;20298;-47
2022/12/29 01:43:14;;;;;;;3.20;3.00;;;9.00;99.90;;;;;;5029516;28;20689;-45
2022/12/29 01:45:44;;;;;;;3.63;3.33;;;9.00;99.90;;;;;;5021751;28;20277;-45
2022/12/29 01:48:14;;;;;;;3.90;3.60;;;9.10;99.90;;;;;;5036723;28;20192;-47
2022/12/29 01:50:46;;;;;;;4.43;4.03;;;9.10;99.90;;;;;;5022830;28;20196;-44
2022/12/29 01:53:18;;;;;;;4.33;4.03;;;9.10;99.90;;;;;;5026464;28;20864;-48
2022/12/29 01:55:50;;;;;;;4.07;3.73;;;9.10;99.90;;;;;;5019858;28;20250;-47
2022/12/29 01:58:20;;;;;;;4.43;4.03;;;9.10;99.90;;;;;;5026342;28;20208;-50
2022/12/29 02:00:47;;;;;;;4.93;4.27;;;9.10;99.90;;;;;;5013088;28;20211;-45
2022/12/29 02:03:15;;;;;;;5.23;4.13;;;9.10;99.90;;;;;;5032132;28;20627;-48
2022/12/29 02:05:50;;;;;;;4.97;4.37;;;9.10;99.90;;;;;;5023094;28;20208;-46
2022/12/29 02:08:18;;;;;;;4.17;3.87;;;9.10;99.90;;;;;;5038802;28;20214;-50
2022/12/29 02:10:47;;;;;;;4.17;3.77;;;9.10;99.90;;;;;;5024460;28;20195;-46
2022/12/29 02:13:17;;;;;;;5.27;4.27;;;9.20;99.90;;;;;;5030633;28;20204;-51
2022/12/29 02:15:55;;;;;;;4.37;3.93;;;9.20;99.90;;;;;;5006026;28;20314;-48
2022/12/29 02:18:32;;;;;;;6.23;4.30;;;9.20;99.90;;;;;;5048910;28;20203;-49
2022/12/29 02:21:41;;;;;;;5.57;3.97;;;9.30;99.90;;;;;;5024092;28;20246;-49
2022/12/29 02:24:47;;;;;;;4.80;4.40;;;9.30;99.90;;;;;;5027836;28;20234;-47
2022/12/29 02:27:32;;;;;;;4.23;3.93;;;9.30;99.90;;;;;;5043860;28;20203;-50
2022/12/29 02:30:17;;;;;;;6.13;4.07;;;9.30;99.90;;;;;;5026568;28;20288;-46
2022/12/29 02:32:53;;;;;;;6.53;4.23;;;9.30;99.90;;;;;;5033084;28;20206;-48
2022/12/29 02:35:27;;;;;;;4.40;4.10;;;9.30;99.90;;;;;;5027169;28;20215;-45
2022/12/29 02:38:02;;;;;;;4.03;3.80;;;9.30;99.90;;;;;;5023142;28;20298;-49
2022/12/29 02:40:38;;;;;;;4.33;3.93;;;9.30;99.90;;;;;;5024966;28;20200;-46
2022/12/29 02:43:14;;;;;;;4.77;4.33;;;9.40;99.90;;;;;;5021970;28;20206;-49
2022/12/29 02:45:50;;;;;;;4.13;3.83;;;9.40;99.90;;;;;;5029041;28;20689;-45
2022/12/29 02:48:26;;;;;;;4.73;4.33;;;9.40;99.90;;;;;;5025775;28;20205;-46
2022/12/29 02:50:59;;;;;;;3.80;3.50;;;9.40;99.90;;;;;;5026952;28;20200;-48
2022/12/29 02:56:13;;;;;;;3.43;3.23;;;9.50;99.90;;;;;;5020279;28;20196;-50
2022/12/29 02:58:40;;;;;;;4.10;3.80;;;9.40;99.90;;;;;;5022076;28;20278;-52
2022/12/29 03:01:22;;;;;;;3.90;3.60;;;9.40;99.90;;;;;;5013087;28;20220;-50
2022/12/29 03:04:01;;;;;;;4.10;3.80;;;9.40;99.90;;;;;;5047607;28;20207;-49
2022/12/29 03:06:36;;;;;;;4.07;3.67;;;9.40;99.90;;;;;;5030226;28;20214;-46
2022/12/29 03:09:14;;;;;;;3.90;3.60;;;9.40;99.90;;;;;;5022593;28;20207;-48
2022/12/29 03:17:39;;;;;;;3.43;3.23;;;9.30;99.90;;;;;;5017989;28;20252;-52
2022/12/29 03:20:11;;;;;;;3.90;3.60;;;9.30;99.90;;;;;;5041118;28;20291;-49
2022/12/29 03:22:44;;;;;;;3.63;3.33;;;9.30;99.90;;;;;;5022119;28;20799;-48
2022/12/29 03:25:19;;;;;;;3.53;3.33;;;9.30;99.90;;;;;;5037656;28;20272;-47
2022/12/29 03:27:50;;;;;;;3.43;3.23;;;9.30;99.90;;;;;;5026408;28;20258;-49
2022/12/29 03:30:19;;;;;;;3.77;3.43;;;9.30;99.90;;;;;;5021974;28;20641;-45
2022/12/29 03:32:50;;;;;;;3.30;3.10;;;9.30;99.90;;;;;;5018052;28;20206;-51
2022/12/29 03:35:21;;;;;;;3.27;3.07;;;9.20;99.90;;;;;;5052780;28;20222;-49
2022/12/29 03:37:52;;;;;;;3.23;3.00;;;9.20;99.90;;;;;;5021204;28;20313;-48
2022/12/29 03:40:22;;;;;;;3.00;2.80;;;9.20;99.90;;;;;;5022968;28;20209;-47
2022/12/29 03:42:49;;;;;;;2.90;2.80;;;9.20;99.90;;;;;;5022338;28;20221;-45
2022/12/29 03:45:16;;;;;;;3.00;2.80;;;9.20;99.90;;;;;;5021723;28;20231;-52
2022/12/29 03:47:43;;;;;;;4.23;3.53;;;9.30;99.90;;;;;;5006958;28;21403;-47
2022/12/29 03:50:12;;;;;;;3.57;3.37;;;9.30;99.90;;;;;;5031559;28;20666;-47
2022/12/29 03:52:42;;;;;;;3.10;2.90;;;9.30;99.90;;;;;;5021807;28;20214;-47
2022/12/29 03:55:09;;;;;;;3.00;2.80;;;9.30;99.90;;;;;;5024071;28;20234;-46
2022/12/29 03:57:39;;;;;;;4.17;3.07;;;9.30;99.90;;;;;;5029424;28;20905;-45
2022/12/29 04:00:09;;;;;;;3.20;3.00;;;9.30;99.90;;;;;;5025543;28;20221;-45
2022/12/29 04:02:45;;;;;;;2.97;2.77;;;9.40;99.90;;;;;;5012386;28;23711;-45
2022/12/29 04:05:18;;;;;;;3.80;3.20;;;9.40;99.90;;;;;;5043309;28;20221;-51
2022/12/29 04:07:46;;;;;;;2.93;2.73;;;9.40;99.90;;;;;;5020304;28;20197;-45
2022/12/29 04:10:14;;;;;;;3.00;2.70;;;9.40;99.90;;;;;;5025041;28;20249;-46
2022/12/29 04:12:41;;;;;;;4.23;2.90;;;9.40;99.90;;;;;;5022070;28;20285;-46
2022/12/29 04:15:10;;;;;;;2.97;2.77;;;9.40;99.90;;;;;;5022689;28;20250;-45
2022/12/29 04:17:36;;;;;;;2.60;2.40;;;9.50;99.90;;;;;;5027207;28;20976;-46
2022/12/29 04:22:48;;;;;;;2.63;2.50;;;9.40;99.90;;;;;;4998727;28;20381;-47
2022/12/29 04:25:15;;;;;;;2.50;2.40;;;9.40;99.90;;;;;;5023405;28;20314;-46
2022/12/29 04:27:43;;;;;;;2.47;2.27;;;9.50;99.90;;;;;;5018872;28;20697;-44
2022/12/29 04:30:43;;;;;;;2.10;2.00;;;9.50;99.90;;;;;;5026249;28;20464;-47
2022/12/29 04:33:24;;;;;;;2.50;2.30;;;9.50;99.90;;;;;;5022017;28;20203;-50
2022/12/29 04:35:52;;;;;;;2.00;1.90;;;9.50;99.90;;;;;;5022604;28;21024;-45
2022/12/29 04:38:23;;;;;;;2.37;2.17;;;9.50;99.90;;;;;;5033707;28;20219;-48
2022/12/29 04:40:51;;;;;;;2.20;2.10;;;9.50;99.90;;;;;;5024594;28;20295;-45
2022/12/29 04:43:21;;;;;;;1.90;1.80;;;9.50;99.90;;;;;;5024438;28;20206;-50
2022/12/29 04:46:07;;;;;;;1.80;1.70;;;9.50;99.90;;;;;;5027698;28;20321;-44
2022/12/29 04:48:49;;;;;;;2.00;1.80;;;9.50;99.90;;;;;;5015139;28;21114;-44
2022/12/29 04:51:29;;;;;;;2.60;2.40;;;9.50;99.90;;;;;;5047592;28;20209;-50
2022/12/29 04:53:57;;;;;;;1.77;1.67;;;9.60;99.90;;;;;;5026754;28;20206;-47
2022/12/29 04:56:26;;;;;;;3.43;1.53;;;9.50;99.90;;;;;;5020966;28;20862;-48
2022/12/29 04:58:52;;;;;;;1.63;1.53;;;9.50;99.90;;;;;;5031913;28;20187;-45
2022/12/29 05:01:21;;;;;;;1.60;1.50;;;9.50;99.90;;;;;;5038016;28;20215;-49
2022/12/29 05:03:50;;;;;;;1.40;1.30;;;9.50;99.90;;;;;;5026665;28;20208;-47
2022/12/29 05:06:17;;;;;;;1.57;1.47;;;9.50;99.90;;;;;;5027494;28;20212;-47
2022/12/29 05:08:45;;;;;;;1.80;1.70;;;9.50;99.90;;;;;;5035460;28;20227;-45
2022/12/29 05:11:13;;;;;;;1.70;1.43;;;9.50;99.90;;;;;;5035633;28;20257;-45
2022/12/29 05:13:40;;;;;;;1.77;1.67;;;9.50;99.90;;;;;;5029377;28;20346;-45
2022/12/29 05:16:08;;;;;;;1.60;1.50;;;9.50;99.90;;;;;;5033225;28;20593;-46
2022/12/29 05:18:35;;;;;;;1.60;1.50;;;9.50;99.90;;;;;;5018698;28;20207;-48
2022/12/29 05:21:04;;;;;;;1.80;1.70;;;9.50;99.90;;;;;;5030463;28;20577;-45
2022/12/29 05:23:31;;;;;;;2.27;1.70;;;9.50;99.90;;;;;;5037106;28;20207;-51
2022/12/29 05:26:02;;;;;;;1.70;1.43;;;9.50;99.90;;;;;;5025691;28;20228;-44
2022/12/29 05:28:37;;;;;;;1.63;1.40;;;9.60;99.90;;;;;;5015136;28;20200;-46
2022/12/29 05:31:11;;;;;;;1.70;1.60;;;9.60;99.90;;;;;;5036712;28;20202;-49
2022/12/29 05:33:39;;;;;;;2.90;2.10;;;9.60;99.90;;;;;;5024480;28;23259;-44
2022/12/29 05:36:06;;;;;;;2.53;2.33;;;9.70;99.90;;;;;;5031706;28;20335;-45
2022/12/29 05:38:34;;;;;;;7.40;4.03;;;9.80;99.90;;;;;;5026691;28;20203;-49
2022/12/29 05:41:01;;;;;;;2.90;2.27;;;9.90;99.90;;;;;;5040066;28;20278;-45
2022/12/29 05:43:50;;;;;;;3.87;3.20;;;9.90;99.90;;;;;;5042516;28;20202;-46
2022/12/29 05:46:37;;;;;;;3.47;3.17;;;10.00;99.90;;;;;;5022926;28;20813;-49
2022/12/29 05:49:30;;;;;;;7.23;3.77;;;10.00;99.90;;;;;;5026109;28;20208;-51
2022/12/29 05:52:19;;;;;;;7.33;3.87;;;10.00;99.90;;;;;;5025603;28;20668;-50
2022/12/29 05:54:46;;;;;;;12.97;4.00;;;10.00;99.90;;;;;;5035304;28;20789;-48
2022/12/29 05:57:16;;;;;;;7.50;3.40;;;10.00;99.90;;;;;;5024591;28;20578;-51
2022/12/29 05:59:48;;;;;;;4.03;2.77;;;10.00;99.90;;;;;;5020361;28;21848;-49
2022/12/29 06:02:16;;;;;;;6.30;3.47;;;10.10;99.90;;;;;;5029598;28;20310;-53
2022/12/29 06:04:43;;;;;;;8.57;3.20;;;10.00;99.90;;;;;;5023131;28;20962;-47
2022/12/29 06:07:10;;;;;;;6.00;2.53;;;10.10;99.90;;;;;;5019307;28;20230;-45
2022/12/29 06:09:41;;;;;;;4.33;3.77;;;10.10;99.90;;;;;;5032868;28;20205;-45
2022/12/29 06:12:09;;;;;;;7.97;3.33;;;10.10;99.90;;;;;;5017806;28;20235;-45
2022/12/29 06:14:38;;;;;;;4.93;2.90;;;10.10;99.90;;;;;;5043855;28;20318;-49
2022/12/29 06:17:09;;;;;;;10.70;3.97;;;10.10;99.90;;;;;;5034673;28;20302;-48
2022/12/29 06:19:37;;;;;;;4.20;3.30;;;10.10;99.90;;;;;;5053546;28;20195;-47
2022/12/29 06:22:04;;;;;;;7.73;2.63;;;10.10;99.90;;;;;;5008775;28;20224;-53
2022/12/29 06:24:34;;;;;;;3.53;3.13;;;10.20;99.90;;;;;;5048353;28;20218;-45
2022/12/29 06:27:00;;;;;;;8.20;5.20;;;10.20;99.90;;;;;;5035460;28;20577;-49
2022/12/29 06:29:28;;;;;;;7.53;2.97;;;10.20;99.90;;;;;;5030778;28;20200;-46
2022/12/29 06:31:57;;;;;;;6.17;3.87;;;10.20;99.90;;;;;;5022268;28;20192;-48
2022/12/29 06:34:26;;;;;;;5.07;3.50;;;10.30;99.90;;;;;;5031694;28;20965;-44
2022/12/29 06:36:52;;;;;;;6.63;3.10;;;10.20;99.90;;;;;;5023821;28;20577;-48
2022/12/29 06:39:19;;;;;;;4.33;2.97;;;10.30;99.90;;;;;;5039084;28;20202;-46
2022/12/29 06:41:59;;;;;;;7.97;5.10;;;10.30;99.90;;;;;;5029073;28;20613;-48
2022/12/29 06:44:42;;;;;;;4.13;3.47;;;10.30;99.90;;;;;;5022617;28;20231;-45
2022/12/29 06:47:10;;;;;;;10.63;3.77;;;10.20;99.90;;;;;;5020005;28;20218;-45
2022/12/29 06:49:39;;;;;;;4.10;2.53;;;10.20;99.90;;;;;;5034930;28;20567;-47
2022/12/29 06:52:06;;;;;;;4.30;2.33;;;10.20;99.90;;;;;;5014001;28;20204;-50
2022/12/29 06:54:34;;;;;;;7.37;3.00;;;10.20;99.90;;;;;;5041924;28;20222;-45
2022/12/29 06:57:01;;;;;;;2.13;2.03;;;10.20;99.90;;;;;;5038762;28;20619;-46
2022/12/29 06:59:28;;;;;;;3.27;2.00;;;10.20;99.90;;;;;;5032142;28;20659;-45
2022/12/29 07:01:55;;;;;;;4.03;2.70;;;10.20;99.90;;;;;;5034819;28;20242;-50
2022/12/29 07:04:22;;;;;;;4.20;2.53;;;10.20;99.90;;;;;;5025044;28;20219;-45
2022/12/29 07:06:50;;;;;;;5.73;2.13;;;10.20;99.90;;;;;;5032799;28;20206;-52
2022/12/29 07:09:17;;;;;;;7.03;3.60;;;10.10;99.90;;;;;;5019025;28;20196;-48
2022/12/29 07:12:06;;;;;;;5.60;3.03;;;10.10;99.90;;;;;;5033934;28;20291;-48
2022/12/29 07:14:33;;;;;;;2.37;2.00;;;10.00;99.90;;;;;;5027698;28;20693;-48
2022/12/29 07:17:00;;;;;;;7.20;3.70;;;10.00;99.90;;;;;;5028513;28;20517;-46
2022/12/29 07:19:27;;;;;;;3.17;2.53;;;10.00;99.90;;;;;;5028697;28;20214;-47
2022/12/29 07:21:58;;;;;;;5.40;2.60;;;10.10;99.90;;;;;;5028144;28;20211;-48
2022/12/29 07:24:25;;;;;;;6.47;3.17;;;10.00;99.90;;;;;;5024132;28;20221;-46
2022/12/29 07:26:52;;;;;;;7.10;3.57;;;10.00;99.90;;;;;;5036559;28;20239;-51
2022/12/29 07:29:19;;;;;;;6.10;3.60;;;10.00;99.90;;;;;;5023335;28;20204;-45
2022/12/29 07:31:46;;;;;;;8.27;3.70;;;10.00;99.90;;;;;;5038383;28;20212;-49
2022/12/29 07:34:12;;;;;;;3.03;2.50;;;10.00;99.90;;;;;;5017804;28;20235;-47
2022/12/29 07:36:39;;;;;;;5.43;4.60;;;10.00;99.90;;;;;;5029285;28;20199;-45
2022/12/29 07:39:08;;;;;;;3.97;2.90;;;10.00;99.90;;;;;;5009754;28;20215;-48
2022/12/29 07:41:35;;;;;;;9.87;2.83;;;10.00;99.90;;;;;;5038645;28;20275;-45
2022/12/29 07:44:02;;;;;;;4.07;2.70;;;10.00;99.90;;;;;;5043573;28;20223;-52
2022/12/29 07:46:48;;;;;;;3.20;2.30;;;10.00;99.90;;;;;;5027323;28;20254;-50
2022/12/29 07:49:15;;;;;;;5.23;3.17;;;10.00;99.90;;;;;;5021215;28;20204;-45
2022/12/29 07:51:42;;;;;;;8.67;3.40;;;10.00;99.90;;;;;;5026312;28;20286;-47
2022/12/29 07:54:12;;;;;;;6.93;4.37;;;10.00;99.90;;;;;;5023816;28;20205;-47
2022/12/29 07:56:40;;;;;;;2.50;2.23;;;10.10;99.90;;;;;;5030345;28;20670;-46
2022/12/29 07:59:06;;;;;;;3.70;2.57;;;10.10;99.90;;;;;;5035780;28;20274;-45
2022/12/29 08:01:33;;;;;;;3.47;2.97;;;10.10;99.90;;;;;;5025356;28;20206;-50
2022/12/29 08:04:00;;;;;;;4.93;2.67;;;10.10;99.90;;;;;;5018756;28;20239;-45
2022/12/29 08:06:26;;;;;;;6.53;3.90;;;10.10;99.90;;;;;;5017224;28;20211;-51
2022/12/29 08:08:56;;;;;;;8.90;3.90;;;10.10;99.90;;;;;;5029354;28;20348;-48
2022/12/29 08:11:24;;;;;;;5.83;2.77;;;10.10;99.90;;;;;;5013536;28;20204;-49
2022/12/29 08:13:51;;;;;;;4.23;2.70;;;10.10;99.90;;;;;;5038926;28;20198;-48
2022/12/29 08:16:18;;;;;;;6.53;3.20;;;10.10;99.90;;;;;;5021542;28;20207;-46
2022/12/29 08:18:45;;;;;;;2.63;1.87;;;10.10;99.90;;;;;;5022010;28;20219;-47
2022/12/29 08:21:13;;;;;;;2.20;2.00;;;10.10;99.90;;;;;;5009510;28;20204;-45
2022/12/29 08:23:40;;;;;;;6.80;3.47;;;10.10;99.90;;;;;;5031103;28;20220;-49
2022/12/29 08:26:07;;;;;;;4.50;2.70;;;10.10;99.90;;;;;;5011895;28;20219;-48
2022/12/29 08:28:35;;;;;;;4.10;3.07;;;10.10;99.90;;;;;;5035615;28;20285;-51
2022/12/29 08:31:03;;;;;;;1.70;1.60;;;10.10;99.90;;;;;;5022388;28;20853;-49
2022/12/29 08:33:31;;;;;;;3.50;2.77;;;10.10;99.90;;;;;;5061029;28;20710;-45
2022/12/29 08:36:01;;;;;;;6.60;3.30;;;10.10;99.90;;;;;;5014699;28;20239;-48
2022/12/29 08:38:29;;;;;;;2.53;1.70;;;10.10;99.90;;;;;;5023543;28;20680;-48
2022/12/29 08:40:56;;;;;;;3.07;1.67;;;10.10;99.90;;;;;;5017321;28;20235;-51
2022/12/29 08:43:23;;;;;;;3.17;1.73;;;10.10;99.90;;;;;;5022961;28;20314;-46
2022/12/29 08:45:51;;;;;;;4.00;1.60;;;10.10;99.90;;;;;;5030871;28;20228;-50
2022/12/29 08:48:21;;;;;;;1.80;1.20;;;10.10;99.90;;;;;;5023772;28;20216;-46
2022/12/29 08:50:49;;;;;;;3.50;2.40;;;10.20;99.90;;;;;;5026444;28;20273;-47
2022/12/29 08:53:17;;;;;;;3.47;1.73;;;10.10;99.90;;;;;;5020112;28;20204;-47
2022/12/29 08:55:45;;;;;;;3.07;2.10;;;10.10;99.90;;;;;;5023495;28;20237;-45
2022/12/29 08:58:14;;;;;;;2.43;1.77;;;10.20;99.90;;;;;;5031581;28;20771;-47
2022/12/29 09:00:43;;;;;;;3.77;2.60;;;10.20;99.90;;;;;;5028539;28;20895;-45
2022/12/29 09:03:11;;;;;;;4.27;2.50;;;10.20;99.90;;;;;;5022737;28;20215;-49
2022/12/29 09:05:38;;;;;;;4.87;3.27;;;10.20;99.90;;;;;;5022985;28;20216;-49
2022/12/29 09:08:05;;;;;;;3.57;2.13;;;10.20;99.90;;;;;;5020898;28;20203;-51
2022/12/29 09:10:32;;;;;;;3.33;1.40;;;10.20;99.90;;;;;;5026966;28;20204;-48
2022/12/29 09:12:59;;;;;;;1.90;1.80;;;10.30;99.90;;;;;;5024196;28;20207;-49
2022/12/29 09:15:26;;;;;;;1.60;1.50;;;10.30;99.90;;;;;;5034813;28;20239;-54
2022/12/29 09:17:56;;;;;;;5.33;2.43;;;10.40;99.90;;;;;;5035131;28;20196;-52
2022/12/29 09:20:24;;;;;;;2.53;1.57;;;10.40;99.90;;;;;;5021146;28;20208;-50
2022/12/29 09:22:51;;;;;;;1.87;1.70;;;10.50;99.90;;;;;;5014923;28;20234;-48
2022/12/29 09:25:18;;;;;;;1.53;1.30;;;10.50;99.90;;;;;;5026868;28;20278;-53
2022/12/29 09:27:45;;;;;;;1.73;1.33;;;10.40;99.90;;;;;;5023617;28;20233;-51
2022/12/29 09:30:14;;;;;;;2.40;1.40;;;10.50;99.90;;;;;;5047707;28;20285;-53
2022/12/29 09:32:42;;;;;;;1.80;1.70;;;10.50;99.90;;;;;;5029125;28;20283;-51
2022/12/29 09:35:09;;;;;;;5.50;1.73;;;10.50;99.90;;;;;;5034827;28;20270;-47
2022/12/29 09:37:58;;;;;;;5.53;1.70;;;10.50;99.90;;;;;;5030766;28;20219;-47
2022/12/29 09:40:30;;;;;;;2.43;1.47;;;10.50;99.90;;;;;;5025864;28;20327;-48
2022/12/29 09:43:18;;;;;;;5.73;2.20;;;10.50;99.90;;;;;;5023284;28;20223;-48
2022/12/29 09:45:50;;;;;;;2.63;0.83;;;10.50;99.90;;;;;;5039534;28;20220;-45
2022/12/29 09:48:23;;;;;;;3.53;2.13;;;10.60;99.90;;;;;;5042280;28;20604;-50
2022/12/29 09:50:53;;;;;;;2.20;1.33;;;10.60;99.90;;;;;;5032054;28;20554;-47
2022/12/29 09:53:27;;;;;;;5.67;1.70;;;10.60;99.90;;;;;;5023629;28;20183;-53
2022/12/29 09:55:57;;;;;;;5.80;1.90;;;10.60;99.90;;;;;;5034863;28;20227;-49
2022/12/29 09:58:29;;;;;;;2.77;1.33;;;10.60;99.90;;;;;;5023426;28;20290;-45
2022/12/29 10:01:03;;;;;;;6.57;1.33;;;10.60;99.90;;;;;;5040678;28;20227;-49
2022/12/29 10:03:41;;;;;;;4.60;2.50;;;10.60;99.90;;;;;;5036416;28;20873;-45
2022/12/29 10:06:13;;;;;;;3.33;1.03;;;10.70;99.90;;;;;;5035402;28;20230;-50
2022/12/29 10:08:48;;;;;;;3.00;1.60;;;10.70;99.90;;;;;;5028192;28;21237;-48
2022/12/29 10:11:29;;;;;;;2.97;2.17;;;10.60;99.90;;;;;;5026016;28;20256;-51
2022/12/29 10:14:18;;;;;;;2.10;1.40;;;10.60;99.90;;;;;;5033103;28;20194;-45
2022/12/29 10:16:54;;;;;;;2.33;1.23;;;10.60;99.90;;;;;;5042804;28;20203;-48
2022/12/29 10:19:36;;;;;;;4.60;1.60;;;10.60;99.90;;;;;;5038709;28;20768;-46
2022/12/29 10:22:12;;;;;;;3.33;1.23;;;10.60;99.90;;;;;;5030995;28;20208;-47
2022/12/29 10:24:41;;;;;;;6.60;2.60;;;10.60;99.90;;;;;;5028907;28;20280;-45
2022/12/29 10:27:13;;;;;;;3.90;1.23;;;10.70;99.90;;;;;;5019905;28;20211;-53
2022/12/29 10:29:45;;;;;;;5.13;1.53;;;10.70;99.90;;;;;;5034381;28;20200;-47
2022/12/29 10:32:22;;;;;;;3.80;1.13;;;10.80;99.90;;;;;;5020798;28;20561;-53
2022/12/29 10:34:54;;;;;;;3.17;1.57;;;10.70;99.90;;;;;;5039583;28;20219;-47
2022/12/29 10:37:33;;;;;;;3.60;1.30;;;10.70;99.90;;;;;;5025406;28;20199;-48
2022/12/29 10:40:12;;;;;;;7.13;2.00;;;10.70;99.90;;;;;;5026887;28;20210;-50
2022/12/29 10:42:43;;;;;;;8.47;2.03;;;10.70;99.90;;;;;;5023886;28;20219;-50
2022/12/29 10:45:13;;;;;;;5.57;2.07;;;10.70;99.90;;;;;;5038964;28;20227;-52
2022/12/29 10:47:51;;;;;;;5.50;1.57;;;10.70;99.90;;;;;;5022188;28;20214;-52
2022/12/29 10:50:19;;;;;;;3.33;1.00;;;10.70;99.90;;;;;;5030160;28;20693;-52
2022/12/29 10:52:47;;;;;;;3.43;1.20;;;10.70;99.90;;;;;;5037925;28;20278;-47
2022/12/29 10:55:22;;;;;;;6.33;2.33;;;10.70;99.90;;;;;;5030547;28;20227;-53
2022/12/29 10:57:49;;;;;;;4.57;2.13;;;10.80;99.90;;;;;;5028147;28;20203;-48
2022/12/29 11:00:20;;;;;;;5.63;1.20;;;10.70;99.90;;;;;;5031519;28;20274;-49
2022/12/29 11:02:59;;;;;;;3.63;1.60;;;10.70;99.90;;;;;;5028867;28;20231;-53
2022/12/29 11:05:34;;;;;;;5.23;1.63;;;10.70;99.90;;;;;;5037246;28;20214;-48
2022/12/29 11:08:04;;;;;;;5.50;2.17;;;10.70;99.90;;;;;;5034629;28;21029;-52
2022/12/29 11:10:38;;;;;;;2.53;0.80;;;10.80;99.90;;;;;;5064883;28;20874;-52
2022/12/29 11:13:13;;;;;;;6.13;1.80;;;10.80;99.90;;;;;;5029695;28;20317;-52
2022/12/29 11:15:41;;;;;;;4.37;1.80;;;10.70;99.90;;;;;;5027110;28;20281;-47
2022/12/29 11:18:21;;;;;;;5.87;2.03;;;10.70;99.90;;;;;;5014063;28;21436;-52
2022/12/29 11:20:48;;;;;;;2.63;1.10;;;10.80;99.90;;;;;;5033610;28;20244;-52
2022/12/29 11:23:25;;;;;;;4.37;1.30;;;10.80;99.90;;;;;;5032371;28;20222;-49
2022/12/29 11:26:20;;;;;;;3.37;1.50;;;10.80;99.90;;;;;;5029325;28;20222;-51
2022/12/29 11:28:48;;;;;;;3.23;1.17;;;10.90;99.90;;;;;;5020862;28;20204;-54
2022/12/29 11:31:22;;;;;;;3.23;0.90;;;11.00;99.90;;;;;;5028790;28;20272;-51
2022/12/29 11:33:49;;;;;;;5.30;1.47;;;11.00;99.90;;;;;;5016507;28;20230;-54
2022/12/29 11:36:20;;;;;;;6.47;2.07;;;11.00;99.90;;;;;;5033074;28;20929;-47
2022/12/29 11:38:50;;;;;;;3.90;1.33;;;11.00;99.90;;;;;;5023725;28;20204;-51
2022/12/29 11:41:24;;;;;;;5.17;1.90;;;11.00;99.90;;;;;;5032298;28;20203;-52
2022/12/29 11:43:52;;;;;;;5.50;2.13;;;11.00;99.90;;;;;;5020597;28;20230;-51
2022/12/29 11:46:23;;;;;;;3.87;1.50;;;11.00;99.90;;;;;;5024763;28;20199;-50
2022/12/29 11:48:50;;;;;;;2.80;1.00;;;11.00;99.90;;;;;;5023404;28;20895;-52
2022/12/29 11:51:23;;;;;;;3.80;1.10;;;10.90;99.90;;;;;;5036317;28;20665;-46
2022/12/29 11:53:52;;;;;;;1.97;0.87;;;10.90;99.90;;;;;;5029752;28;20195;-55
2022/12/29 11:56:33;;;;;;;3.67;1.53;;;10.90;99.90;;;;;;5035826;28;20203;-51
2022/12/29 11:59:40;;;;;;;4.03;1.60;;;10.90;99.90;;;;;;5026145;28;20401;-45
2022/12/29 12:02:28;;;;;;;7.17;1.10;;;10.90;99.90;;;;;;5026926;28;20929;-49
2022/12/29 12:05:02;;;;;;;2.87;1.47;;;10.90;99.90;;;;;;5016071;28;20352;-42
2022/12/29 12:07:40;;;;;;;3.03;1.37;;;10.80;99.90;;;;;;5038039;28;20195;-52
2022/12/29 12:10:11;;;;;;;3.17;1.63;;;10.80;99.90;;;;;;5029138;28;20701;-43
2022/12/29 12:12:54;;;;;;;5.20;1.40;;;10.80;99.90;;;;;;5032184;28;20207;-51
2022/12/29 12:15:28;;;;;;;3.83;1.20;;;10.80;99.90;;;;;;5029422;28;20223;-53
2022/12/29 12:18:03;;;;;;;2.93;1.10;;;10.70;99.90;;;;;;5055477;28;20210;-54
2022/12/29 12:20:42;;;;;;;4.33;1.30;;;10.70;99.90;;;;;;5029145;28;20191;-55
2022/12/29 12:23:22;;;;;;;2.67;1.40;;;10.70;99.90;;;;;;5023932;28;20251;-51
2022/12/29 12:25:55;;;;;;;2.70;1.17;;;10.80;99.90;;;;;;5030795;28;20230;-52
2022/12/29 12:28:29;;;;;;;3.87;1.73;;;10.70;99.90;;;;;;5023961;28;20408;-46
2022/12/29 12:30:58;;;;;;;2.63;1.63;;;10.70;99.90;;;;;;5024380;28;20689;-51
2022/12/29 12:33:29;;;;;;;4.50;1.33;;;10.70;99.90;;;;;;5031155;28;20973;-48
2022/12/29 12:36:15;;;;;;;4.73;1.90;;;10.70;99.90;;;;;;5030934;28;20230;-50
2022/12/29 12:38:49;;;;;;;6.03;2.20;;;10.60;99.90;;;;;;5044339;28;20206;-51
2022/12/29 12:41:26;;;;;;;4.27;1.50;;;10.60;99.90;;;;;;5033313;28;20206;-52
2022/12/29 12:44:02;;;;;;;3.27;1.50;;;10.60;99.90;;;;;;5023247;28;20286;-52
2022/12/29 12:46:54;;;;;;;6.03;2.10;;;10.60;99.90;;;;;;5016920;28;20203;-51
2022/12/29 12:49:48;;;;;;;3.37;0.97;;;10.60;99.90;;;;;;5033344;28;20297;-53
2022/12/29 12:52:24;;;;;;;5.10;1.30;;;10.60;99.90;;;;;;5014848;28;20567;-53
2022/12/29 12:55:04;;;;;;;3.77;1.37;;;10.60;99.90;;;;;;5035224;28;20216;-50
2022/12/29 12:57:46;;;;;;;1.67;1.30;;;10.60;99.90;;;;;;5023197;28;20318;-53
2022/12/29 13:00:17;;;;;;;5.23;1.63;;;10.60;99.90;;;;;;5027480;28;20203;-51
2022/12/29 13:02:55;;;;;;;5.87;1.67;;;10.50;99.90;;;;;;5022907;28;20557;-48
2022/12/29 13:05:35;;;;;;;1.90;1.00;;;10.50;99.90;;;;;;5029149;28;20280;-47
2022/12/29 13:08:33;;;;;;;3.40;1.00;;;10.50;99.90;;;;;;5032164;28;20230;-54
2022/12/29 13:11:07;;;;;;;2.30;1.47;;;10.50;99.90;;;;;;5008795;28;20216;-51
2022/12/29 13:13:53;;;;;;;5.10;1.30;;;10.50;99.90;;;;;;5040183;28;20252;-48
2022/12/29 13:16:30;;;;;;;6.63;1.23;;;10.50;99.90;;;;;;5035440;28;20199;-53
2022/12/29 13:19:04;;;;;;;4.23;1.33;;;10.50;99.90;;;;;;5023074;28;20218;-48
2022/12/29 13:21:41;;;;;;;2.23;1.40;;;10.50;99.90;;;;;;5031718;28;20817;-51
2022/12/29 13:24:17;;;;;;;2.07;1.20;;;10.60;99.90;;;;;;5022753;28;21258;-52
2022/12/29 13:26:48;;;;;;;5.20;1.73;;;10.60;99.90;;;;;;5033181;28;20579;-55
2022/12/29 13:29:20;;;;;;;5.07;1.40;;;10.60;99.90;;;;;;5038459;28;20620;-51
2022/12/29 13:31:55;;;;;;;4.93;0.70;;;10.60;99.90;;;;;;5029548;28;20203;-54
2022/12/29 13:34:33;;;;;;;6.70;1.73;;;10.60;99.90;;;;;;5031909;28;20310;-48
2022/12/29 13:37:03;;;;;;;6.23;1.27;;;10.50;99.90;;;;;;5038447;28;20187;-52
2022/12/29 13:39:35;;;;;;;3.23;1.10;;;10.50;99.90;;;;;;5025249;28;20207;-52
2022/12/29 13:42:04;;;;;;;3.33;0.83;;;10.30;99.90;;;;;;5035638;28;20212;-52
2022/12/29 13:44:35;;;;;;;2.40;0.90;;;10.20;99.90;;;;;;5032853;28;20227;-51
2022/12/29 13:47:16;;;;;;;3.37;0.90;;;10.00;99.90;;;;;;5030756;28;20202;-48
2022/12/29 13:49:44;;;;;;;4.10;1.37;;;9.90;99.90;;;;;;5023079;28;20602;-52
2022/12/29 13:52:19;;;;;;;9.67;2.30;;;9.80;99.90;;;;;;5039852;28;20387;-52
2022/12/29 13:54:59;;;;;;;9.63;1.77;;;9.80;99.90;;;;;;5020132;28;20226;-54